<?xml version="1.0" encoding="UTF-8" standalone="no" ?>
<gpx xmlns="http://www.topografix.com/GPX/1/1" xmlns:xsi="http://www.w3.org/2001/XMLSchema-instance" xsi:schemaLocation="http://www.topografix.com/GPX/1/1 http://www.topografix.com/GPX/1/1/gpx.xsd" version="1.1" creator="VisuGPX - https://www.visugpx.com">
  <metadata>
    <name>Pas de l'Arche</name>
    <desc><![CDATA[Itinéraire du Pas de l'Arche en Dévoluy]]></desc>
  </metadata>
  <wpt lat="44.7746" lon="5.94172">
    <ele>1355.814697</ele>
    <name><![CDATA[001]]></name>
    <desc><![CDATA[04-AOU-12]]></desc>
    <cmt><![CDATA[04-AOU-12]]></cmt>
  </wpt>
  <wpt lat="44.77826" lon="5.9497">
    <ele>1601.189453</ele>
    <name><![CDATA[002]]></name>
    <desc><![CDATA[04-AOU-12]]></desc>
    <cmt><![CDATA[04-AOU-12]]></cmt>
  </wpt>
  <wpt lat="44.7743" lon="5.95228">
    <ele>1754.759033</ele>
    <name><![CDATA[003]]></name>
    <desc><![CDATA[04-AOU-12]]></desc>
    <cmt><![CDATA[04-AOU-12]]></cmt>
  </wpt>
  <wpt lat="44.77431" lon="5.95224">
    <ele>1753.07666</ele>
    <name><![CDATA[004]]></name>
    <desc><![CDATA[04-AOU-12]]></desc>
    <cmt><![CDATA[04-AOU-12]]></cmt>
  </wpt>
  <wpt lat="44.75768" lon="5.92814">
    <ele>1683.862061</ele>
    <name><![CDATA[005]]></name>
    <desc><![CDATA[04-AOU-12]]></desc>
    <cmt><![CDATA[04-AOU-12]]></cmt>
  </wpt>
  <wpt lat="44.75882" lon="5.92601">
    <ele>1607.19751</ele>
    <name><![CDATA[006]]></name>
    <desc><![CDATA[04-AOU-12]]></desc>
    <cmt><![CDATA[04-AOU-12]]></cmt>
  </wpt>
  <wpt lat="44.76097" lon="5.9233">
    <ele>1444.736084</ele>
    <name><![CDATA[007]]></name>
    <desc><![CDATA[04-AOU-12]]></desc>
    <cmt><![CDATA[04-AOU-12]]></cmt>
  </wpt>
  <wpt lat="44.76122" lon="5.92303">
    <ele>1423.587158</ele>
    <name><![CDATA[008]]></name>
    <desc><![CDATA[04-AOU-12]]></desc>
    <cmt><![CDATA[04-AOU-12]]></cmt>
  </wpt>
  <wpt lat="44.7636" lon="5.92587">
    <ele>1218.587646</ele>
    <name><![CDATA[009]]></name>
    <desc><![CDATA[04-AOU-12]]></desc>
    <cmt><![CDATA[04-AOU-12]]></cmt>
  </wpt>
  <wpt lat="44.76529" lon="5.92749">
    <ele>1240.217285</ele>
    <name><![CDATA[010]]></name>
    <desc><![CDATA[04-AOU-12]]></desc>
    <cmt><![CDATA[04-AOU-12]]></cmt>
  </wpt>
  <trk>
    <name><![CDATA[1]]></name>
    <trkseg>
      <trkpt lat="44.7777" lon="5.92664">
        <ele>961.936523</ele>
        <time>2012-08-04T06:29:01Z</time>
      </trkpt>
      <trkpt lat="44.77692" lon="5.92654">
        <ele>966.262207</ele>
        <time>2012-08-04T06:29:59Z</time>
      </trkpt>
      <trkpt lat="44.77671" lon="5.92607">
        <ele>974.914307</ele>
        <time>2012-08-04T06:30:28Z</time>
      </trkpt>
      <trkpt lat="44.77657" lon="5.92607">
        <ele>979.720703</ele>
        <time>2012-08-04T06:30:54Z</time>
      </trkpt>
      <trkpt lat="44.77602" lon="5.92651">
        <ele>984.046631</ele>
        <time>2012-08-04T06:32:12Z</time>
      </trkpt>
      <trkpt lat="44.77586" lon="5.92619">
        <ele>993.179199</ele>
        <time>2012-08-04T06:32:41Z</time>
      </trkpt>
      <trkpt lat="44.77564" lon="5.92625">
        <ele>992.69873</ele>
        <time>2012-08-04T06:33:04Z</time>
      </trkpt>
      <trkpt lat="44.77549" lon="5.92658">
        <ele>993.659912</ele>
        <time>2012-08-04T06:33:38Z</time>
      </trkpt>
      <trkpt lat="44.77562" lon="5.92753">
        <ele>1011.444336</ele>
        <time>2012-08-04T06:35:00Z</time>
      </trkpt>
      <trkpt lat="44.77579" lon="5.92773">
        <ele>1017.692627</ele>
        <time>2012-08-04T06:35:29Z</time>
      </trkpt>
      <trkpt lat="44.77546" lon="5.92872">
        <ele>1037.880615</ele>
        <time>2012-08-04T06:37:06Z</time>
      </trkpt>
      <trkpt lat="44.77545" lon="5.92901">
        <ele>1051.81958</ele>
        <time>2012-08-04T06:37:33Z</time>
      </trkpt>
      <trkpt lat="44.77518" lon="5.92903">
        <ele>1060.952148</ele>
        <time>2012-08-04T06:38:03Z</time>
      </trkpt>
      <trkpt lat="44.7746" lon="5.92964">
        <ele>1070.56543</ele>
        <time>2012-08-04T06:39:37Z</time>
      </trkpt>
      <trkpt lat="44.77304" lon="5.93023">
        <ele>1105.653564</ele>
        <time>2012-08-04T06:42:29Z</time>
      </trkpt>
      <trkpt lat="44.77258" lon="5.93052">
        <ele>1114.305176</ele>
        <time>2012-08-04T06:43:23Z</time>
      </trkpt>
      <trkpt lat="44.77203" lon="5.93069">
        <ele>1128.725098</ele>
        <time>2012-08-04T06:44:26Z</time>
      </trkpt>
      <trkpt lat="44.7718" lon="5.93053">
        <ele>1134.012451</ele>
        <time>2012-08-04T06:44:57Z</time>
      </trkpt>
      <trkpt lat="44.7715" lon="5.93109">
        <ele>1163.33252</ele>
        <time>2012-08-04T06:46:12Z</time>
      </trkpt>
      <trkpt lat="44.77144" lon="5.93094">
        <ele>1164.774658</ele>
        <time>2012-08-04T06:46:32Z</time>
      </trkpt>
      <trkpt lat="44.77134" lon="5.93096">
        <ele>1163.33252</ele>
        <time>2012-08-04T06:46:45Z</time>
      </trkpt>
      <trkpt lat="44.77127" lon="5.93125">
        <ele>1169.581299</ele>
        <time>2012-08-04T06:47:12Z</time>
      </trkpt>
      <trkpt lat="44.77181" lon="5.93198">
        <ele>1181.597656</ele>
        <time>2012-08-04T06:48:23Z</time>
      </trkpt>
      <trkpt lat="44.77254" lon="5.93349">
        <ele>1193.133301</ele>
        <time>2012-08-04T06:50:34Z</time>
      </trkpt>
      <trkpt lat="44.77271" lon="5.93432">
        <ele>1203.227295</ele>
        <time>2012-08-04T06:51:34Z</time>
      </trkpt>
      <trkpt lat="44.77269" lon="5.93501">
        <ele>1221.9729</ele>
        <time>2012-08-04T06:52:32Z</time>
      </trkpt>
      <trkpt lat="44.77286" lon="5.93542">
        <ele>1227.260254</ele>
        <time>2012-08-04T06:53:09Z</time>
      </trkpt>
      <trkpt lat="44.77356" lon="5.93575">
        <ele>1234.950928</ele>
        <time>2012-08-04T06:54:19Z</time>
      </trkpt>
      <trkpt lat="44.77365" lon="5.93615">
        <ele>1237.354004</ele>
        <time>2012-08-04T06:54:53Z</time>
      </trkpt>
      <trkpt lat="44.77361" lon="5.93657">
        <ele>1257.541748</ele>
        <time>2012-08-04T06:55:28Z</time>
      </trkpt>
      <trkpt lat="44.7735" lon="5.93678">
        <ele>1256.580322</ele>
        <time>2012-08-04T06:55:44Z</time>
      </trkpt>
      <trkpt lat="44.77347" lon="5.93754">
        <ele>1263.790283</ele>
        <time>2012-08-04T06:56:38Z</time>
      </trkpt>
      <trkpt lat="44.77383" lon="5.93846">
        <ele>1278.690918</ele>
        <time>2012-08-04T06:57:57Z</time>
      </trkpt>
      <trkpt lat="44.77359" lon="5.9389">
        <ele>1295.033203</ele>
        <time>2012-08-04T06:58:44Z</time>
      </trkpt>
      <trkpt lat="44.77345" lon="5.9395">
        <ele>1304.64624</ele>
        <time>2012-08-04T06:59:38Z</time>
      </trkpt>
      <trkpt lat="44.77356" lon="5.94021">
        <ele>1311.856445</ele>
        <time>2012-08-04T07:00:46Z</time>
      </trkpt>
      <trkpt lat="44.77351" lon="5.9409">
        <ele>1317.624023</ele>
        <time>2012-08-04T07:02:00Z</time>
      </trkpt>
      <trkpt lat="44.77361" lon="5.94116">
        <ele>1322.430664</ele>
        <time>2012-08-04T07:02:25Z</time>
      </trkpt>
      <trkpt lat="44.77393" lon="5.94085">
        <ele>1341.176514</ele>
        <time>2012-08-04T07:04:26Z</time>
      </trkpt>
      <trkpt lat="44.77446" lon="5.94106">
        <ele>1340.215332</ele>
        <time>2012-08-04T07:05:17Z</time>
      </trkpt>
      <trkpt lat="44.77493" lon="5.94098">
        <ele>1352.231445</ele>
        <time>2012-08-04T07:06:00Z</time>
      </trkpt>
      <trkpt lat="44.77496" lon="5.94107">
        <ele>1353.192871</ele>
        <time>2012-08-04T07:06:07Z</time>
      </trkpt>
      <trkpt lat="44.77458" lon="5.94177">
        <ele>1354.634766</ele>
        <time>2012-08-04T07:07:23Z</time>
      </trkpt>
      <trkpt lat="44.77397" lon="5.94225">
        <ele>1371.457764</ele>
        <time>2012-08-04T07:08:35Z</time>
      </trkpt>
      <trkpt lat="44.77385" lon="5.94224">
        <ele>1370.496582</ele>
        <time>2012-08-04T07:08:49Z</time>
      </trkpt>
      <trkpt lat="44.77439" lon="5.9425">
        <ele>1388.761963</ele>
        <time>2012-08-04T07:09:47Z</time>
      </trkpt>
      <trkpt lat="44.77491" lon="5.94249">
        <ele>1399.816895</ele>
        <time>2012-08-04T07:10:43Z</time>
      </trkpt>
      <trkpt lat="44.77509" lon="5.94237">
        <ele>1397.894287</ele>
        <time>2012-08-04T07:11:04Z</time>
      </trkpt>
      <trkpt lat="44.77499" lon="5.94291">
        <ele>1414.717285</ele>
        <time>2012-08-04T07:12:28Z</time>
      </trkpt>
      <trkpt lat="44.77477" lon="5.94309">
        <ele>1411.352783</ele>
        <time>2012-08-04T07:12:49Z</time>
      </trkpt>
      <trkpt lat="44.77502" lon="5.94284">
        <ele>1428.175781</ele>
        <time>2012-08-04T07:13:19Z</time>
      </trkpt>
      <trkpt lat="44.77601" lon="5.94243">
        <ele>1429.136963</ele>
        <time>2012-08-04T07:14:58Z</time>
      </trkpt>
      <trkpt lat="44.77619" lon="5.94226">
        <ele>1427.695068</ele>
        <time>2012-08-04T07:15:46Z</time>
      </trkpt>
      <trkpt lat="44.77621" lon="5.94232">
        <ele>1427.2146</ele>
        <time>2012-08-04T07:15:56Z</time>
      </trkpt>
      <trkpt lat="44.77629" lon="5.9421">
        <ele>1434.424316</ele>
        <time>2012-08-04T07:16:28Z</time>
      </trkpt>
      <trkpt lat="44.77629" lon="5.94237">
        <ele>1431.059814</ele>
        <time>2012-08-04T07:17:11Z</time>
      </trkpt>
      <trkpt lat="44.77632" lon="5.94213">
        <ele>1430.098389</ele>
        <time>2012-08-04T07:17:34Z</time>
      </trkpt>
      <trkpt lat="44.77625" lon="5.94213">
        <ele>1431.059814</ele>
        <time>2012-08-04T07:17:53Z</time>
      </trkpt>
      <trkpt lat="44.77628" lon="5.94182">
        <ele>1432.020996</ele>
        <time>2012-08-04T07:18:15Z</time>
      </trkpt>
      <trkpt lat="44.77659" lon="5.94136">
        <ele>1435.866211</ele>
        <time>2012-08-04T07:19:49Z</time>
      </trkpt>
      <trkpt lat="44.77655" lon="5.94169">
        <ele>1429.617676</ele>
        <time>2012-08-04T07:20:45Z</time>
      </trkpt>
      <trkpt lat="44.77662" lon="5.94182">
        <ele>1434.424316</ele>
        <time>2012-08-04T07:21:06Z</time>
      </trkpt>
      <trkpt lat="44.77663" lon="5.94227">
        <ele>1444.998779</ele>
        <time>2012-08-04T07:21:47Z</time>
      </trkpt>
      <trkpt lat="44.77698" lon="5.94262">
        <ele>1449.80542</ele>
        <time>2012-08-04T07:22:33Z</time>
      </trkpt>
      <trkpt lat="44.77728" lon="5.94326">
        <ele>1460.860596</ele>
        <time>2012-08-04T07:23:49Z</time>
      </trkpt>
      <trkpt lat="44.77747" lon="5.94338">
        <ele>1473.35791</ele>
        <time>2012-08-04T07:24:14Z</time>
      </trkpt>
      <trkpt lat="44.77771" lon="5.94338">
        <ele>1473.35791</ele>
        <time>2012-08-04T07:24:38Z</time>
      </trkpt>
      <trkpt lat="44.77806" lon="5.9437">
        <ele>1486.335693</ele>
        <time>2012-08-04T07:25:25Z</time>
      </trkpt>
      <trkpt lat="44.77854" lon="5.94375">
        <ele>1495.468018</ele>
        <time>2012-08-04T07:26:27Z</time>
      </trkpt>
      <trkpt lat="44.77869" lon="5.94364">
        <ele>1512.291016</ele>
        <time>2012-08-04T07:26:46Z</time>
      </trkpt>
      <trkpt lat="44.77932" lon="5.94394">
        <ele>1511.329834</ele>
        <time>2012-08-04T07:27:41Z</time>
      </trkpt>
      <trkpt lat="44.77988" lon="5.94453">
        <ele>1515.175049</ele>
        <time>2012-08-04T07:28:39Z</time>
      </trkpt>
      <trkpt lat="44.78005" lon="5.9449">
        <ele>1520.462402</ele>
        <time>2012-08-04T07:29:06Z</time>
      </trkpt>
      <trkpt lat="44.78034" lon="5.94514">
        <ele>1530.556152</ele>
        <time>2012-08-04T07:29:31Z</time>
      </trkpt>
      <trkpt lat="44.78071" lon="5.94563">
        <ele>1538.727539</ele>
        <time>2012-08-04T07:30:27Z</time>
      </trkpt>
      <trkpt lat="44.78094" lon="5.94575">
        <ele>1541.611328</ele>
        <time>2012-08-04T07:30:48Z</time>
      </trkpt>
      <trkpt lat="44.78201" lon="5.94578">
        <ele>1548.340576</ele>
        <time>2012-08-04T07:32:22Z</time>
      </trkpt>
      <trkpt lat="44.78205" lon="5.94594">
        <ele>1556.031006</ele>
        <time>2012-08-04T07:33:58Z</time>
      </trkpt>
      <trkpt lat="44.78195" lon="5.94606">
        <ele>1557.953857</ele>
        <time>2012-08-04T07:34:24Z</time>
      </trkpt>
      <trkpt lat="44.78148" lon="5.94617">
        <ele>1561.318359</ele>
        <time>2012-08-04T07:35:14Z</time>
      </trkpt>
      <trkpt lat="44.78086" lon="5.94649">
        <ele>1561.799072</ele>
        <time>2012-08-04T07:36:05Z</time>
      </trkpt>
      <trkpt lat="44.78055" lon="5.94648">
        <ele>1557.473145</ele>
        <time>2012-08-04T07:36:31Z</time>
      </trkpt>
      <trkpt lat="44.78052" lon="5.94638">
        <ele>1556.031006</ele>
        <time>2012-08-04T07:36:42Z</time>
      </trkpt>
      <trkpt lat="44.78055" lon="5.94649">
        <ele>1557.953857</ele>
        <time>2012-08-04T07:37:18Z</time>
      </trkpt>
      <trkpt lat="44.77972" lon="5.94711">
        <ele>1581.986816</ele>
        <time>2012-08-04T07:39:04Z</time>
      </trkpt>
      <trkpt lat="44.77953" lon="5.94747">
        <ele>1581.025635</ele>
        <time>2012-08-04T07:39:31Z</time>
      </trkpt>
      <trkpt lat="44.77904" lon="5.94805">
        <ele>1585.832031</ele>
        <time>2012-08-04T07:40:38Z</time>
      </trkpt>
      <trkpt lat="44.77888" lon="5.94859">
        <ele>1594.003174</ele>
        <time>2012-08-04T07:41:27Z</time>
      </trkpt>
      <trkpt lat="44.77871" lon="5.94877">
        <ele>1597.36792</ele>
        <time>2012-08-04T07:41:55Z</time>
      </trkpt>
      <trkpt lat="44.77802" lon="5.95021">
        <ele>1594.483643</ele>
        <time>2012-08-04T07:44:05Z</time>
      </trkpt>
      <trkpt lat="44.77776" lon="5.95132">
        <ele>1604.577637</ele>
        <time>2012-08-04T07:45:28Z</time>
      </trkpt>
      <trkpt lat="44.77752" lon="5.95173">
        <ele>1598.809814</ele>
        <time>2012-08-04T07:45:59Z</time>
      </trkpt>
      <trkpt lat="44.77745" lon="5.95236">
        <ele>1603.616455</ele>
        <time>2012-08-04T07:46:31Z</time>
      </trkpt>
      <trkpt lat="44.77735" lon="5.95252">
        <ele>1603.135742</ele>
        <time>2012-08-04T07:46:55Z</time>
      </trkpt>
      <trkpt lat="44.77683" lon="5.95277">
        <ele>1597.848633</ele>
        <time>2012-08-04T07:47:58Z</time>
      </trkpt>
      <trkpt lat="44.77687" lon="5.95282">
        <ele>1607.46167</ele>
        <time>2012-08-04T07:48:20Z</time>
      </trkpt>
      <trkpt lat="44.77638" lon="5.95286">
        <ele>1591.599854</ele>
        <time>2012-08-04T07:49:10Z</time>
      </trkpt>
      <trkpt lat="44.77635" lon="5.9531">
        <ele>1593.522461</ele>
        <time>2012-08-04T07:49:22Z</time>
      </trkpt>
      <trkpt lat="44.77609" lon="5.95366">
        <ele>1588.716064</ele>
        <time>2012-08-04T07:50:13Z</time>
      </trkpt>
      <trkpt lat="44.77548" lon="5.95404">
        <ele>1591.599854</ele>
        <time>2012-08-04T07:51:08Z</time>
      </trkpt>
      <trkpt lat="44.77563" lon="5.95456">
        <ele>1593.522461</ele>
        <time>2012-08-04T07:51:41Z</time>
      </trkpt>
      <trkpt lat="44.77555" lon="5.9547">
        <ele>1605.05835</ele>
        <time>2012-08-04T07:52:41Z</time>
      </trkpt>
      <trkpt lat="44.77561" lon="5.95473">
        <ele>1602.655029</ele>
        <time>2012-08-04T07:54:18Z</time>
      </trkpt>
      <trkpt lat="44.77539" lon="5.95533">
        <ele>1606.500244</ele>
        <time>2012-08-04T07:55:14Z</time>
      </trkpt>
      <trkpt lat="44.77535" lon="5.95497">
        <ele>1612.749023</ele>
        <time>2012-08-04T07:55:43Z</time>
      </trkpt>
      <trkpt lat="44.77544" lon="5.95478">
        <ele>1617.074951</ele>
        <time>2012-08-04T07:55:57Z</time>
      </trkpt>
      <trkpt lat="44.77538" lon="5.95469">
        <ele>1615.633057</ele>
        <time>2012-08-04T07:56:02Z</time>
      </trkpt>
      <trkpt lat="44.77544" lon="5.95467">
        <ele>1621.881348</ele>
        <time>2012-08-04T07:56:08Z</time>
      </trkpt>
      <trkpt lat="44.77536" lon="5.95424">
        <ele>1617.55542</ele>
        <time>2012-08-04T07:56:41Z</time>
      </trkpt>
      <trkpt lat="44.77513" lon="5.95515">
        <ele>1626.207275</ele>
        <time>2012-08-04T07:57:55Z</time>
      </trkpt>
      <trkpt lat="44.77507" lon="5.95414">
        <ele>1636.30127</ele>
        <time>2012-08-04T07:59:26Z</time>
      </trkpt>
      <trkpt lat="44.77494" lon="5.95472">
        <ele>1643.991699</ele>
        <time>2012-08-04T08:00:35Z</time>
      </trkpt>
      <trkpt lat="44.77497" lon="5.95426">
        <ele>1652.162842</ele>
        <time>2012-08-04T08:01:18Z</time>
      </trkpt>
      <trkpt lat="44.77489" lon="5.95416">
        <ele>1653.124268</ele>
        <time>2012-08-04T08:01:29Z</time>
      </trkpt>
      <trkpt lat="44.77466" lon="5.95537">
        <ele>1662.737549</ele>
        <time>2012-08-04T08:03:03Z</time>
      </trkpt>
      <trkpt lat="44.7745" lon="5.95566">
        <ele>1665.140869</ele>
        <time>2012-08-04T08:03:28Z</time>
      </trkpt>
      <trkpt lat="44.77466" lon="5.95583">
        <ele>1672.831299</ele>
        <time>2012-08-04T08:03:45Z</time>
      </trkpt>
      <trkpt lat="44.77479" lon="5.95641">
        <ele>1678.599365</ele>
        <time>2012-08-04T08:04:27Z</time>
      </trkpt>
      <trkpt lat="44.77477" lon="5.95716">
        <ele>1677.157471</ele>
        <time>2012-08-04T08:05:39Z</time>
      </trkpt>
      <trkpt lat="44.7751" lon="5.9582">
        <ele>1689.173584</ele>
        <time>2012-08-04T08:07:13Z</time>
      </trkpt>
      <trkpt lat="44.77491" lon="5.959">
        <ele>1684.367188</ele>
        <time>2012-08-04T08:08:20Z</time>
      </trkpt>
      <trkpt lat="44.77435" lon="5.95934">
        <ele>1699.748291</ele>
        <time>2012-08-04T08:09:25Z</time>
      </trkpt>
      <trkpt lat="44.77303" lon="5.95983">
        <ele>1702.151367</ele>
        <time>2012-08-04T08:12:06Z</time>
      </trkpt>
      <trkpt lat="44.77276" lon="5.95974">
        <ele>1703.112793</ele>
        <time>2012-08-04T08:12:56Z</time>
      </trkpt>
      <trkpt lat="44.77216" lon="5.95824">
        <ele>1698.306152</ele>
        <time>2012-08-04T08:15:21Z</time>
      </trkpt>
      <trkpt lat="44.77188" lon="5.95794">
        <ele>1690.13501</ele>
        <time>2012-08-04T08:16:22Z</time>
      </trkpt>
      <trkpt lat="44.77178" lon="5.95795">
        <ele>1684.8479</ele>
        <time>2012-08-04T08:16:47Z</time>
      </trkpt>
      <trkpt lat="44.77165" lon="5.95777">
        <ele>1699.748291</ele>
        <time>2012-08-04T08:17:46Z</time>
      </trkpt>
      <trkpt lat="44.77192" lon="5.9577">
        <ele>1717.532471</ele>
        <time>2012-08-04T08:19:02Z</time>
      </trkpt>
      <trkpt lat="44.7722" lon="5.95777">
        <ele>1747.333496</ele>
        <time>2012-08-04T08:21:31Z</time>
      </trkpt>
      <trkpt lat="44.77222" lon="5.95764">
        <ele>1740.604248</ele>
        <time>2012-08-04T08:21:48Z</time>
      </trkpt>
      <trkpt lat="44.77251" lon="5.95757">
        <ele>1754.062744</ele>
        <time>2012-08-04T08:23:10Z</time>
      </trkpt>
      <trkpt lat="44.7725" lon="5.95745">
        <ele>1756.466064</ele>
        <time>2012-08-04T08:23:25Z</time>
      </trkpt>
      <trkpt lat="44.77268" lon="5.95717">
        <ele>1770.405029</ele>
        <time>2012-08-04T08:24:54Z</time>
      </trkpt>
      <trkpt lat="44.77286" lon="5.9573">
        <ele>1780.979736</ele>
        <time>2012-08-04T08:25:44Z</time>
      </trkpt>
      <trkpt lat="44.7729" lon="5.95717">
        <ele>1792.515625</ele>
        <time>2012-08-04T08:26:11Z</time>
      </trkpt>
      <trkpt lat="44.77323" lon="5.95692">
        <ele>1809.819092</ele>
        <time>2012-08-04T08:27:53Z</time>
      </trkpt>
      <trkpt lat="44.77327" lon="5.957">
        <ele>1805.493408</ele>
        <time>2012-08-04T08:30:13Z</time>
      </trkpt>
      <trkpt lat="44.77321" lon="5.95695">
        <ele>1810.780518</ele>
        <time>2012-08-04T08:32:19Z</time>
      </trkpt>
      <trkpt lat="44.7733" lon="5.95702">
        <ele>1804.051514</ele>
        <time>2012-08-04T08:34:32Z</time>
      </trkpt>
      <trkpt lat="44.77308" lon="5.95688">
        <ele>1795.399414</ele>
        <time>2012-08-04T08:35:04Z</time>
      </trkpt>
      <trkpt lat="44.77296" lon="5.95647">
        <ele>1792.515625</ele>
        <time>2012-08-04T08:35:32Z</time>
      </trkpt>
      <trkpt lat="44.77284" lon="5.95637">
        <ele>1794.918701</ele>
        <time>2012-08-04T08:35:55Z</time>
      </trkpt>
      <trkpt lat="44.7728" lon="5.95591">
        <ele>1801.647949</ele>
        <time>2012-08-04T08:36:52Z</time>
      </trkpt>
      <trkpt lat="44.77295" lon="5.95519">
        <ele>1806.45459</ele>
        <time>2012-08-04T08:38:14Z</time>
      </trkpt>
      <trkpt lat="44.77305" lon="5.95509">
        <ele>1806.45459</ele>
        <time>2012-08-04T08:38:30Z</time>
      </trkpt>
      <trkpt lat="44.77318" lon="5.95418">
        <ele>1799.725342</ele>
        <time>2012-08-04T08:40:51Z</time>
      </trkpt>
      <trkpt lat="44.77348" lon="5.95403">
        <ele>1805.012695</ele>
        <time>2012-08-04T08:41:23Z</time>
      </trkpt>
      <trkpt lat="44.77324" lon="5.95354">
        <ele>1779.056885</ele>
        <time>2012-08-04T08:42:05Z</time>
      </trkpt>
      <trkpt lat="44.7735" lon="5.95348">
        <ele>1792.515625</ele>
        <time>2012-08-04T08:42:14Z</time>
      </trkpt>
      <trkpt lat="44.77341" lon="5.95342">
        <ele>1786.747314</ele>
        <time>2012-08-04T08:42:27Z</time>
      </trkpt>
      <trkpt lat="44.77344" lon="5.95315">
        <ele>1784.344238</ele>
        <time>2012-08-04T08:42:49Z</time>
      </trkpt>
      <trkpt lat="44.77335" lon="5.95287">
        <ele>1777.61499</ele>
        <time>2012-08-04T08:43:11Z</time>
      </trkpt>
      <trkpt lat="44.7734" lon="5.95277">
        <ele>1776.653809</ele>
        <time>2012-08-04T08:43:23Z</time>
      </trkpt>
      <trkpt lat="44.77362" lon="5.95273">
        <ele>1785.30542</ele>
        <time>2012-08-04T08:43:36Z</time>
      </trkpt>
      <trkpt lat="44.77366" lon="5.9524">
        <ele>1770.405029</ele>
        <time>2012-08-04T08:44:17Z</time>
      </trkpt>
      <trkpt lat="44.77373" lon="5.95235">
        <ele>1772.327881</ele>
        <time>2012-08-04T08:44:22Z</time>
      </trkpt>
      <trkpt lat="44.77369" lon="5.9523">
        <ele>1768.963135</ele>
        <time>2012-08-04T08:44:46Z</time>
      </trkpt>
      <trkpt lat="44.77382" lon="5.95221">
        <ele>1775.21167</ele>
        <time>2012-08-04T08:45:26Z</time>
      </trkpt>
      <trkpt lat="44.77375" lon="5.95227">
        <ele>1773.769775</ele>
        <time>2012-08-04T08:46:26Z</time>
      </trkpt>
      <trkpt lat="44.7738" lon="5.95228">
        <ele>1775.21167</ele>
        <time>2012-08-04T08:46:34Z</time>
      </trkpt>
      <trkpt lat="44.77365" lon="5.95241">
        <ele>1767.520996</ele>
        <time>2012-08-04T08:46:54Z</time>
      </trkpt>
      <trkpt lat="44.77384" lon="5.95259">
        <ele>1756.946777</ele>
        <time>2012-08-04T08:47:51Z</time>
      </trkpt>
      <trkpt lat="44.77396" lon="5.95236">
        <ele>1756.946777</ele>
        <time>2012-08-04T08:48:44Z</time>
      </trkpt>
      <trkpt lat="44.77445" lon="5.95216">
        <ele>1751.659424</ele>
        <time>2012-08-04T08:50:22Z</time>
      </trkpt>
      <trkpt lat="44.77434" lon="5.95227">
        <ele>1754.543213</ele>
        <time>2012-08-04T08:51:06Z</time>
      </trkpt>
      <trkpt lat="44.77427" lon="5.95219">
        <ele>1751.178711</ele>
        <time>2012-08-04T09:00:43Z</time>
      </trkpt>
      <trkpt lat="44.77442" lon="5.95199">
        <ele>1770.885742</ele>
        <time>2012-08-04T09:02:22Z</time>
      </trkpt>
      <trkpt lat="44.77435" lon="5.95201">
        <ele>1779.537598</ele>
        <time>2012-08-04T09:03:00Z</time>
      </trkpt>
      <trkpt lat="44.77439" lon="5.95179">
        <ele>1786.266846</ele>
        <time>2012-08-04T09:04:37Z</time>
      </trkpt>
      <trkpt lat="44.77415" lon="5.9516">
        <ele>1807.896729</ele>
        <time>2012-08-04T09:07:30Z</time>
      </trkpt>
      <trkpt lat="44.77421" lon="5.95159">
        <ele>1813.664307</ele>
        <time>2012-08-04T09:07:58Z</time>
      </trkpt>
      <trkpt lat="44.77415" lon="5.95144">
        <ele>1824.239014</ele>
        <time>2012-08-04T09:09:44Z</time>
      </trkpt>
      <trkpt lat="44.77415" lon="5.95152">
        <ele>1829.526123</ele>
        <time>2012-08-04T09:09:58Z</time>
      </trkpt>
      <trkpt lat="44.77414" lon="5.95139">
        <ele>1830.487549</ele>
        <time>2012-08-04T09:10:44Z</time>
      </trkpt>
      <trkpt lat="44.77421" lon="5.95135">
        <ele>1834.332764</ele>
        <time>2012-08-04T09:13:58Z</time>
      </trkpt>
      <trkpt lat="44.77393" lon="5.9514">
        <ele>1826.161621</ele>
        <time>2012-08-04T09:14:59Z</time>
      </trkpt>
      <trkpt lat="44.774" lon="5.95141">
        <ele>1836.736084</ele>
        <time>2012-08-04T09:15:39Z</time>
      </trkpt>
      <trkpt lat="44.77391" lon="5.95142">
        <ele>1838.178223</ele>
        <time>2012-08-04T09:15:53Z</time>
      </trkpt>
      <trkpt lat="44.77398" lon="5.95137">
        <ele>1840.10083</ele>
        <time>2012-08-04T09:16:06Z</time>
      </trkpt>
      <trkpt lat="44.77363" lon="5.95164">
        <ele>1849.233154</ele>
        <time>2012-08-04T09:18:25Z</time>
      </trkpt>
      <trkpt lat="44.77356" lon="5.95148">
        <ele>1846.349365</ele>
        <time>2012-08-04T09:19:11Z</time>
      </trkpt>
      <trkpt lat="44.77358" lon="5.95156">
        <ele>1855.001221</ele>
        <time>2012-08-04T09:19:44Z</time>
      </trkpt>
      <trkpt lat="44.77325" lon="5.95119">
        <ele>1845.387939</ele>
        <time>2012-08-04T09:26:17Z</time>
      </trkpt>
      <trkpt lat="44.77302" lon="5.95116">
        <ele>1842.984619</ele>
        <time>2012-08-04T09:31:54Z</time>
      </trkpt>
      <trkpt lat="44.77225" lon="5.95195">
        <ele>1841.062012</ele>
        <time>2012-08-04T09:36:31Z</time>
      </trkpt>
      <trkpt lat="44.77181" lon="5.9518">
        <ele>1835.293945</ele>
        <time>2012-08-04T09:37:50Z</time>
      </trkpt>
      <trkpt lat="44.77242" lon="5.95288">
        <ele>1973.723877</ele>
        <time>2012-08-04T09:41:32Z</time>
      </trkpt>
      <trkpt lat="44.7724" lon="5.953">
        <ele>2025.154297</ele>
        <time>2012-08-04T09:42:23Z</time>
      </trkpt>
      <trkpt lat="44.77229" lon="5.95298">
        <ele>2040.054932</ele>
        <time>2012-08-04T09:42:30Z</time>
      </trkpt>
      <trkpt lat="44.77241" lon="5.95297">
        <ele>2018.906006</ele>
        <time>2012-08-04T09:44:19Z</time>
      </trkpt>
      <trkpt lat="44.77235" lon="5.95301">
        <ele>2048.706787</ele>
        <time>2012-08-04T09:44:37Z</time>
      </trkpt>
      <trkpt lat="44.77268" lon="5.95299">
        <ele>1990.066406</ele>
        <time>2012-08-04T09:45:41Z</time>
      </trkpt>
      <trkpt lat="44.77269" lon="5.9531">
        <ele>1984.298584</ele>
        <time>2012-08-04T09:46:08Z</time>
      </trkpt>
      <trkpt lat="44.77264" lon="5.95309">
        <ele>1988.624512</ele>
        <time>2012-08-04T09:46:35Z</time>
      </trkpt>
      <trkpt lat="44.77271" lon="5.95317">
        <ele>1985.259766</ele>
        <time>2012-08-04T09:47:12Z</time>
      </trkpt>
      <trkpt lat="44.77266" lon="5.95318">
        <ele>1979.010986</ele>
        <time>2012-08-04T09:47:26Z</time>
      </trkpt>
      <trkpt lat="44.7729" lon="5.95296">
        <ele>2005.927979</ele>
        <time>2012-08-04T09:48:42Z</time>
      </trkpt>
      <trkpt lat="44.77248" lon="5.95318">
        <ele>1991.508301</ele>
        <time>2012-08-04T09:49:22Z</time>
      </trkpt>
      <trkpt lat="44.7726" lon="5.95316">
        <ele>1980.453369</ele>
        <time>2012-08-04T09:49:36Z</time>
      </trkpt>
      <trkpt lat="44.77248" lon="5.95322">
        <ele>1971.320557</ele>
        <time>2012-08-04T09:49:43Z</time>
      </trkpt>
      <trkpt lat="44.7726" lon="5.95326">
        <ele>1998.718262</ele>
        <time>2012-08-04T09:50:44Z</time>
      </trkpt>
      <trkpt lat="44.77273" lon="5.95313">
        <ele>2012.657471</ele>
        <time>2012-08-04T09:51:31Z</time>
      </trkpt>
      <trkpt lat="44.77251" lon="5.95327">
        <ele>1999.198975</ele>
        <time>2012-08-04T09:51:51Z</time>
      </trkpt>
      <trkpt lat="44.77266" lon="5.95317">
        <ele>2012.176758</ele>
        <time>2012-08-04T09:53:35Z</time>
      </trkpt>
      <trkpt lat="44.77225" lon="5.95339">
        <ele>2007.370117</ele>
        <time>2012-08-04T09:55:51Z</time>
      </trkpt>
      <trkpt lat="44.77233" lon="5.9534">
        <ele>2013.138184</ele>
        <time>2012-08-04T09:56:06Z</time>
      </trkpt>
      <trkpt lat="44.77226" lon="5.95352">
        <ele>2016.021973</ele>
        <time>2012-08-04T09:57:10Z</time>
      </trkpt>
      <trkpt lat="44.77242" lon="5.95334">
        <ele>2023.231934</ele>
        <time>2012-08-04T09:58:00Z</time>
      </trkpt>
      <trkpt lat="44.77207" lon="5.95335">
        <ele>2016.502686</ele>
        <time>2012-08-04T09:58:33Z</time>
      </trkpt>
      <trkpt lat="44.77273" lon="5.95302">
        <ele>2072.259033</ele>
        <time>2012-08-04T09:58:53Z</time>
      </trkpt>
      <trkpt lat="44.7723" lon="5.95303">
        <ele>2052.552002</ele>
        <time>2012-08-04T09:59:06Z</time>
      </trkpt>
      <trkpt lat="44.77243" lon="5.95295">
        <ele>2060.723389</ele>
        <time>2012-08-04T09:59:28Z</time>
      </trkpt>
      <trkpt lat="44.77207" lon="5.95308">
        <ele>2051.59082</ele>
        <time>2012-08-04T09:59:45Z</time>
      </trkpt>
      <trkpt lat="44.77219" lon="5.95307">
        <ele>2047.264893</ele>
        <time>2012-08-04T09:59:56Z</time>
      </trkpt>
      <trkpt lat="44.77215" lon="5.95299">
        <ele>2046.303711</ele>
        <time>2012-08-04T10:00:04Z</time>
      </trkpt>
      <trkpt lat="44.77239" lon="5.95296">
        <ele>2045.342285</ele>
        <time>2012-08-04T10:00:21Z</time>
      </trkpt>
      <trkpt lat="44.77197" lon="5.95315">
        <ele>2040.054932</ele>
        <time>2012-08-04T10:00:26Z</time>
      </trkpt>
      <trkpt lat="44.77202" lon="5.95319">
        <ele>2049.1875</ele>
        <time>2012-08-04T10:00:35Z</time>
      </trkpt>
      <trkpt lat="44.77179" lon="5.95316">
        <ele>2041.016113</ele>
        <time>2012-08-04T10:00:46Z</time>
      </trkpt>
      <trkpt lat="44.77198" lon="5.95321">
        <ele>2052.552002</ele>
        <time>2012-08-04T10:01:21Z</time>
      </trkpt>
      <trkpt lat="44.77191" lon="5.95322">
        <ele>2053.994141</ele>
        <time>2012-08-04T10:01:30Z</time>
      </trkpt>
      <trkpt lat="44.77205" lon="5.95325">
        <ele>2053.513428</ele>
        <time>2012-08-04T10:01:45Z</time>
      </trkpt>
      <trkpt lat="44.77169" lon="5.95345">
        <ele>2048.226074</ele>
        <time>2012-08-04T10:02:18Z</time>
      </trkpt>
      <trkpt lat="44.77193" lon="5.95335">
        <ele>2065.530029</ele>
        <time>2012-08-04T10:06:08Z</time>
      </trkpt>
      <trkpt lat="44.77176" lon="5.95336">
        <ele>2044.861572</ele>
        <time>2012-08-04T10:06:54Z</time>
      </trkpt>
      <trkpt lat="44.77186" lon="5.95345">
        <ele>2056.87793</ele>
        <time>2012-08-04T10:08:33Z</time>
      </trkpt>
      <trkpt lat="44.77191" lon="5.95316">
        <ele>2058.800537</ele>
        <time>2012-08-04T10:11:30Z</time>
      </trkpt>
      <trkpt lat="44.77185" lon="5.95303">
        <ele>2062.165283</ele>
        <time>2012-08-04T10:12:24Z</time>
      </trkpt>
      <trkpt lat="44.77194" lon="5.95298">
        <ele>2070.336426</ele>
        <time>2012-08-04T10:13:10Z</time>
      </trkpt>
      <trkpt lat="44.77187" lon="5.95293">
        <ele>2075.623535</ele>
        <time>2012-08-04T10:15:02Z</time>
      </trkpt>
      <trkpt lat="44.77192" lon="5.95295">
        <ele>2073.700928</ele>
        <time>2012-08-04T10:15:24Z</time>
      </trkpt>
      <trkpt lat="44.77185" lon="5.95296">
        <ele>2077.065918</ele>
        <time>2012-08-04T10:16:31Z</time>
      </trkpt>
      <trkpt lat="44.77189" lon="5.95283">
        <ele>2079.949707</ele>
        <time>2012-08-04T10:17:02Z</time>
      </trkpt>
      <trkpt lat="44.77172" lon="5.95278">
        <ele>2078.507812</ele>
        <time>2012-08-04T10:17:43Z</time>
      </trkpt>
      <trkpt lat="44.77164" lon="5.95291">
        <ele>2089.562744</ele>
        <time>2012-08-04T10:18:13Z</time>
      </trkpt>
      <trkpt lat="44.77176" lon="5.95268">
        <ele>2096.292236</ele>
        <time>2012-08-04T10:18:58Z</time>
      </trkpt>
      <trkpt lat="44.77167" lon="5.95263">
        <ele>2093.408203</ele>
        <time>2012-08-04T10:19:19Z</time>
      </trkpt>
      <trkpt lat="44.77181" lon="5.95268">
        <ele>2093.408203</ele>
        <time>2012-08-04T10:21:03Z</time>
      </trkpt>
      <trkpt lat="44.77178" lon="5.95234">
        <ele>2075.623535</ele>
        <time>2012-08-04T10:22:24Z</time>
      </trkpt>
      <trkpt lat="44.77206" lon="5.95203">
        <ele>2055.436035</ele>
        <time>2012-08-04T10:25:30Z</time>
      </trkpt>
      <trkpt lat="44.7721" lon="5.95182">
        <ele>2045.822998</ele>
        <time>2012-08-04T10:27:05Z</time>
      </trkpt>
      <trkpt lat="44.772" lon="5.95189">
        <ele>2044.861572</ele>
        <time>2012-08-04T10:32:31Z</time>
      </trkpt>
      <trkpt lat="44.77205" lon="5.95193">
        <ele>2042.458252</ele>
        <time>2012-08-04T10:32:45Z</time>
      </trkpt>
      <trkpt lat="44.77166" lon="5.95167">
        <ele>2024.193115</ele>
        <time>2012-08-04T10:34:23Z</time>
      </trkpt>
      <trkpt lat="44.77167" lon="5.95157">
        <ele>2020.3479</ele>
        <time>2012-08-04T10:34:34Z</time>
      </trkpt>
      <trkpt lat="44.77148" lon="5.95153">
        <ele>2012.176758</ele>
        <time>2012-08-04T10:35:03Z</time>
      </trkpt>
      <trkpt lat="44.77142" lon="5.95125">
        <ele>1993.430908</ele>
        <time>2012-08-04T10:36:43Z</time>
      </trkpt>
      <trkpt lat="44.77158" lon="5.95108">
        <ele>1991.508301</ele>
        <time>2012-08-04T10:38:02Z</time>
      </trkpt>
      <trkpt lat="44.77134" lon="5.95099">
        <ele>1991.027588</ele>
        <time>2012-08-04T10:38:44Z</time>
      </trkpt>
      <trkpt lat="44.77141" lon="5.95103">
        <ele>1977.569092</ele>
        <time>2012-08-04T10:39:17Z</time>
      </trkpt>
      <trkpt lat="44.77137" lon="5.95108">
        <ele>1979.491699</ele>
        <time>2012-08-04T10:39:25Z</time>
      </trkpt>
      <trkpt lat="44.77148" lon="5.95083">
        <ele>1974.20459</ele>
        <time>2012-08-04T10:40:05Z</time>
      </trkpt>
      <trkpt lat="44.77167" lon="5.95077">
        <ele>1972.762695</ele>
        <time>2012-08-04T10:40:29Z</time>
      </trkpt>
      <trkpt lat="44.77171" lon="5.95051">
        <ele>1959.784668</ele>
        <time>2012-08-04T10:41:10Z</time>
      </trkpt>
      <trkpt lat="44.77141" lon="5.95039">
        <ele>1942.000488</ele>
        <time>2012-08-04T10:42:18Z</time>
      </trkpt>
      <trkpt lat="44.77142" lon="5.95022">
        <ele>1933.829346</ele>
        <time>2012-08-04T10:42:37Z</time>
      </trkpt>
      <trkpt lat="44.77126" lon="5.95027">
        <ele>1933.829346</ele>
        <time>2012-08-04T10:43:13Z</time>
      </trkpt>
      <trkpt lat="44.77104" lon="5.94978">
        <ele>1930.4646</ele>
        <time>2012-08-04T10:44:56Z</time>
      </trkpt>
      <trkpt lat="44.77092" lon="5.94976">
        <ele>1949.691162</ele>
        <time>2012-08-04T10:45:46Z</time>
      </trkpt>
      <trkpt lat="44.77105" lon="5.94972">
        <ele>1927.100098</ele>
        <time>2012-08-04T10:48:08Z</time>
      </trkpt>
      <trkpt lat="44.77113" lon="5.94982">
        <ele>1904.509033</ele>
        <time>2012-08-04T10:50:08Z</time>
      </trkpt>
      <trkpt lat="44.77086" lon="5.9496">
        <ele>1971.320557</ele>
        <time>2012-08-04T10:52:30Z</time>
      </trkpt>
      <trkpt lat="44.77104" lon="5.94983">
        <ele>1921.332031</ele>
        <time>2012-08-04T10:54:26Z</time>
      </trkpt>
      <trkpt lat="44.77075" lon="5.94992">
        <ele>1931.425781</ele>
        <time>2012-08-04T10:55:20Z</time>
      </trkpt>
      <trkpt lat="44.77079" lon="5.94999">
        <ele>1916.525635</ele>
        <time>2012-08-04T10:55:39Z</time>
      </trkpt>
      <trkpt lat="44.77046" lon="5.95004">
        <ele>1926.619385</ele>
        <time>2012-08-04T10:56:24Z</time>
      </trkpt>
      <trkpt lat="44.76978" lon="5.9495">
        <ele>1923.254883</ele>
        <time>2012-08-04T10:59:02Z</time>
      </trkpt>
      <trkpt lat="44.7689" lon="5.94748">
        <ele>1856.923828</ele>
        <time>2012-08-04T11:16:46Z</time>
      </trkpt>
      <trkpt lat="44.76874" lon="5.94732">
        <ele>1856.923828</ele>
        <time>2012-08-04T11:17:12Z</time>
      </trkpt>
      <trkpt lat="44.76796" lon="5.94732">
        <ele>1870.863037</ele>
        <time>2012-08-04T11:19:55Z</time>
      </trkpt>
      <trkpt lat="44.76744" lon="5.94669">
        <ele>1894.415039</ele>
        <time>2012-08-04T11:22:15Z</time>
      </trkpt>
      <trkpt lat="44.7671" lon="5.94653">
        <ele>1905.950928</ele>
        <time>2012-08-04T11:23:28Z</time>
      </trkpt>
      <trkpt lat="44.76702" lon="5.94639">
        <ele>1913.160889</ele>
        <time>2012-08-04T11:24:12Z</time>
      </trkpt>
      <trkpt lat="44.76692" lon="5.94643">
        <ele>1917.486816</ele>
        <time>2012-08-04T11:24:55Z</time>
      </trkpt>
      <trkpt lat="44.76693" lon="5.94651">
        <ele>1919.890137</ele>
        <time>2012-08-04T11:25:10Z</time>
      </trkpt>
      <trkpt lat="44.7667" lon="5.9464">
        <ele>1926.619385</ele>
        <time>2012-08-04T11:26:07Z</time>
      </trkpt>
      <trkpt lat="44.76649" lon="5.94595">
        <ele>1941.519775</ele>
        <time>2012-08-04T11:27:21Z</time>
      </trkpt>
      <trkpt lat="44.76653" lon="5.94568">
        <ele>1946.806885</ele>
        <time>2012-08-04T11:27:50Z</time>
      </trkpt>
      <trkpt lat="44.76626" lon="5.945">
        <ele>1959.304199</ele>
        <time>2012-08-04T11:29:38Z</time>
      </trkpt>
      <trkpt lat="44.76599" lon="5.94484">
        <ele>1956.420166</ele>
        <time>2012-08-04T11:30:22Z</time>
      </trkpt>
      <trkpt lat="44.76601" lon="5.94467">
        <ele>1959.304199</ele>
        <time>2012-08-04T11:31:12Z</time>
      </trkpt>
      <trkpt lat="44.76655" lon="5.94386">
        <ele>1945.36499</ele>
        <time>2012-08-04T11:33:35Z</time>
      </trkpt>
      <trkpt lat="44.7659" lon="5.94449">
        <ele>1944.884277</ele>
        <time>2012-08-04T12:01:32Z</time>
      </trkpt>
      <trkpt lat="44.76569" lon="5.94446">
        <ele>1946.806885</ele>
        <time>2012-08-04T12:01:57Z</time>
      </trkpt>
      <trkpt lat="44.76532" lon="5.94422">
        <ele>1941.039062</ele>
        <time>2012-08-04T12:02:47Z</time>
      </trkpt>
      <trkpt lat="44.7649" lon="5.94369">
        <ele>1936.713135</ele>
        <time>2012-08-04T12:04:40Z</time>
      </trkpt>
      <trkpt lat="44.76463" lon="5.94298">
        <ele>1938.635986</ele>
        <time>2012-08-04T12:06:09Z</time>
      </trkpt>
      <trkpt lat="44.76449" lon="5.94219">
        <ele>1934.310059</ele>
        <time>2012-08-04T12:07:10Z</time>
      </trkpt>
      <trkpt lat="44.76422" lon="5.94188">
        <ele>1934.790771</ele>
        <time>2012-08-04T12:07:45Z</time>
      </trkpt>
      <trkpt lat="44.76412" lon="5.94189">
        <ele>1930.945312</ele>
        <time>2012-08-04T12:08:07Z</time>
      </trkpt>
      <trkpt lat="44.76369" lon="5.94142">
        <ele>1907.873779</ele>
        <time>2012-08-04T12:09:17Z</time>
      </trkpt>
      <trkpt lat="44.76358" lon="5.94078">
        <ele>1891.53125</ele>
        <time>2012-08-04T12:10:24Z</time>
      </trkpt>
      <trkpt lat="44.76338" lon="5.94046">
        <ele>1891.050537</ele>
        <time>2012-08-04T12:11:07Z</time>
      </trkpt>
      <trkpt lat="44.76336" lon="5.93953">
        <ele>1899.22168</ele>
        <time>2012-08-04T12:12:43Z</time>
      </trkpt>
      <trkpt lat="44.76288" lon="5.9393">
        <ele>1900.18335</ele>
        <time>2012-08-04T12:14:18Z</time>
      </trkpt>
      <trkpt lat="44.76276" lon="5.93899">
        <ele>1888.166748</ele>
        <time>2012-08-04T12:14:51Z</time>
      </trkpt>
      <trkpt lat="44.76256" lon="5.93884">
        <ele>1882.398682</ele>
        <time>2012-08-04T12:15:22Z</time>
      </trkpt>
      <trkpt lat="44.76214" lon="5.93884">
        <ele>1874.227539</ele>
        <time>2012-08-04T12:16:33Z</time>
      </trkpt>
      <trkpt lat="44.76175" lon="5.93834">
        <ele>1851.155762</ele>
        <time>2012-08-04T12:17:29Z</time>
      </trkpt>
      <trkpt lat="44.76178" lon="5.93813">
        <ele>1846.829834</ele>
        <time>2012-08-04T12:17:49Z</time>
      </trkpt>
      <trkpt lat="44.76091" lon="5.93676">
        <ele>1807.896729</ele>
        <time>2012-08-04T12:19:59Z</time>
      </trkpt>
      <trkpt lat="44.76065" lon="5.93666">
        <ele>1800.686523</ele>
        <time>2012-08-04T12:20:33Z</time>
      </trkpt>
      <trkpt lat="44.7604" lon="5.93639">
        <ele>1797.322021</ele>
        <time>2012-08-04T12:21:04Z</time>
      </trkpt>
      <trkpt lat="44.75944" lon="5.93593">
        <ele>1781.460205</ele>
        <time>2012-08-04T12:23:21Z</time>
      </trkpt>
      <trkpt lat="44.75939" lon="5.93467">
        <ele>1776.653809</ele>
        <time>2012-08-04T12:25:40Z</time>
      </trkpt>
      <trkpt lat="44.75915" lon="5.93357">
        <ele>1779.056885</ele>
        <time>2012-08-04T12:27:20Z</time>
      </trkpt>
      <trkpt lat="44.75921" lon="5.93325">
        <ele>1780.499023</ele>
        <time>2012-08-04T12:27:47Z</time>
      </trkpt>
      <trkpt lat="44.75972" lon="5.93203">
        <ele>1775.692383</ele>
        <time>2012-08-04T12:29:33Z</time>
      </trkpt>
      <trkpt lat="44.75971" lon="5.93191">
        <ele>1774.731201</ele>
        <time>2012-08-04T12:29:58Z</time>
      </trkpt>
      <trkpt lat="44.76004" lon="5.931">
        <ele>1795.880127</ele>
        <time>2012-08-04T12:32:06Z</time>
      </trkpt>
      <trkpt lat="44.75995" lon="5.93107">
        <ele>1790.592773</ele>
        <time>2012-08-04T12:32:45Z</time>
      </trkpt>
      <trkpt lat="44.75949" lon="5.93081">
        <ele>1775.21167</ele>
        <time>2012-08-04T12:33:55Z</time>
      </trkpt>
      <trkpt lat="44.75897" lon="5.93028">
        <ele>1754.062744</ele>
        <time>2012-08-04T12:34:57Z</time>
      </trkpt>
      <trkpt lat="44.75857" lon="5.92948">
        <ele>1740.604248</ele>
        <time>2012-08-04T12:36:27Z</time>
      </trkpt>
      <trkpt lat="44.75855" lon="5.92927">
        <ele>1740.123779</ele>
        <time>2012-08-04T12:36:41Z</time>
      </trkpt>
      <trkpt lat="44.75832" lon="5.92931">
        <ele>1723.300537</ele>
        <time>2012-08-04T12:37:09Z</time>
      </trkpt>
      <trkpt lat="44.7583" lon="5.92914">
        <ele>1718.493896</ele>
        <time>2012-08-04T12:37:19Z</time>
      </trkpt>
      <trkpt lat="44.7581" lon="5.92904">
        <ele>1706.958008</ele>
        <time>2012-08-04T12:37:40Z</time>
      </trkpt>
      <trkpt lat="44.75776" lon="5.92844">
        <ele>1685.809082</ele>
        <time>2012-08-04T12:38:34Z</time>
      </trkpt>
      <trkpt lat="44.75768" lon="5.92815">
        <ele>1681.963867</ele>
        <time>2012-08-04T12:39:01Z</time>
      </trkpt>
      <trkpt lat="44.75821" lon="5.92744">
        <ele>1668.024658</ele>
        <time>2012-08-04T12:40:52Z</time>
      </trkpt>
      <trkpt lat="44.7583" lon="5.92757">
        <ele>1664.179443</ele>
        <time>2012-08-04T12:41:04Z</time>
      </trkpt>
      <trkpt lat="44.75842" lon="5.92665">
        <ele>1638.223877</ele>
        <time>2012-08-04T12:42:24Z</time>
      </trkpt>
      <trkpt lat="44.75889" lon="5.92535">
        <ele>1619.95874</ele>
        <time>2012-08-04T12:44:37Z</time>
      </trkpt>
      <trkpt lat="44.75881" lon="5.92633">
        <ele>1601.693848</ele>
        <time>2012-08-04T12:46:11Z</time>
      </trkpt>
      <trkpt lat="44.75895" lon="5.92663">
        <ele>1594.964355</ele>
        <time>2012-08-04T12:46:44Z</time>
      </trkpt>
      <trkpt lat="44.75894" lon="5.92632">
        <ele>1599.77124</ele>
        <time>2012-08-04T12:47:04Z</time>
      </trkpt>
      <trkpt lat="44.75905" lon="5.92612">
        <ele>1592.561279</ele>
        <time>2012-08-04T12:47:27Z</time>
      </trkpt>
      <trkpt lat="44.75918" lon="5.92609">
        <ele>1591.119141</ele>
        <time>2012-08-04T12:47:48Z</time>
      </trkpt>
      <trkpt lat="44.75925" lon="5.92576">
        <ele>1579.583252</ele>
        <time>2012-08-04T12:48:32Z</time>
      </trkpt>
      <trkpt lat="44.75938" lon="5.92567">
        <ele>1577.660645</ele>
        <time>2012-08-04T12:48:53Z</time>
      </trkpt>
      <trkpt lat="44.7593" lon="5.92608">
        <ele>1563.240967</ele>
        <time>2012-08-04T12:49:26Z</time>
      </trkpt>
      <trkpt lat="44.75965" lon="5.92551">
        <ele>1553.147217</ele>
        <time>2012-08-04T12:50:40Z</time>
      </trkpt>
      <trkpt lat="44.75958" lon="5.92536">
        <ele>1547.859863</ele>
        <time>2012-08-04T12:50:53Z</time>
      </trkpt>
      <trkpt lat="44.7596" lon="5.92509">
        <ele>1549.302002</ele>
        <time>2012-08-04T12:51:21Z</time>
      </trkpt>
      <trkpt lat="44.7598" lon="5.92493">
        <ele>1536.324219</ele>
        <time>2012-08-04T12:53:57Z</time>
      </trkpt>
      <trkpt lat="44.75977" lon="5.92505">
        <ele>1532.959473</ele>
        <time>2012-08-04T12:54:11Z</time>
      </trkpt>
      <trkpt lat="44.76002" lon="5.92479">
        <ele>1525.268799</ele>
        <time>2012-08-04T12:54:51Z</time>
      </trkpt>
      <trkpt lat="44.76034" lon="5.92409">
        <ele>1519.981689</ele>
        <time>2012-08-04T12:55:52Z</time>
      </trkpt>
      <trkpt lat="44.76047" lon="5.92425">
        <ele>1516.136475</ele>
        <time>2012-08-04T12:56:11Z</time>
      </trkpt>
      <trkpt lat="44.76047" lon="5.92438">
        <ele>1516.136475</ele>
        <time>2012-08-04T12:56:21Z</time>
      </trkpt>
      <trkpt lat="44.76036" lon="5.92449">
        <ele>1508.926514</ele>
        <time>2012-08-04T12:56:30Z</time>
      </trkpt>
      <trkpt lat="44.76069" lon="5.9242">
        <ele>1514.213623</ele>
        <time>2012-08-04T12:57:21Z</time>
      </trkpt>
      <trkpt lat="44.76067" lon="5.92402">
        <ele>1503.639404</ele>
        <time>2012-08-04T12:57:41Z</time>
      </trkpt>
      <trkpt lat="44.76083" lon="5.92419">
        <ele>1492.584229</ele>
        <time>2012-08-04T12:58:06Z</time>
      </trkpt>
      <trkpt lat="44.76106" lon="5.92419">
        <ele>1475.760986</ele>
        <time>2012-08-04T12:58:45Z</time>
      </trkpt>
      <trkpt lat="44.76101" lon="5.9238">
        <ele>1491.14209</ele>
        <time>2012-08-04T12:59:50Z</time>
      </trkpt>
      <trkpt lat="44.76072" lon="5.92364">
        <ele>1478.164307</ele>
        <time>2012-08-04T13:00:14Z</time>
      </trkpt>
      <trkpt lat="44.76099" lon="5.92396">
        <ele>1470.473877</ele>
        <time>2012-08-04T13:01:20Z</time>
      </trkpt>
      <trkpt lat="44.76109" lon="5.92391">
        <ele>1472.877197</ele>
        <time>2012-08-04T13:01:35Z</time>
      </trkpt>
      <trkpt lat="44.76132" lon="5.92419">
        <ele>1464.705811</ele>
        <time>2012-08-04T13:02:10Z</time>
      </trkpt>
      <trkpt lat="44.76097" lon="5.92387">
        <ele>1465.186523</ele>
        <time>2012-08-04T13:04:55Z</time>
      </trkpt>
      <trkpt lat="44.76086" lon="5.92389">
        <ele>1462.783203</ele>
        <time>2012-08-04T13:05:08Z</time>
      </trkpt>
      <trkpt lat="44.76061" lon="5.92364">
        <ele>1467.5896</ele>
        <time>2012-08-04T13:05:47Z</time>
      </trkpt>
      <trkpt lat="44.76064" lon="5.92348">
        <ele>1486.335693</ele>
        <time>2012-08-04T13:06:17Z</time>
      </trkpt>
      <trkpt lat="44.76053" lon="5.92343">
        <ele>1473.838379</ele>
        <time>2012-08-04T13:06:23Z</time>
      </trkpt>
      <trkpt lat="44.76065" lon="5.92329">
        <ele>1487.296875</ele>
        <time>2012-08-04T13:07:07Z</time>
      </trkpt>
      <trkpt lat="44.76055" lon="5.92309">
        <ele>1481.528809</ele>
        <time>2012-08-04T13:07:30Z</time>
      </trkpt>
      <trkpt lat="44.7606" lon="5.92306">
        <ele>1483.932129</ele>
        <time>2012-08-04T13:07:35Z</time>
      </trkpt>
      <trkpt lat="44.76054" lon="5.92273">
        <ele>1469.512695</ele>
        <time>2012-08-04T13:08:04Z</time>
      </trkpt>
      <trkpt lat="44.76045" lon="5.92261">
        <ele>1465.186523</ele>
        <time>2012-08-04T13:08:16Z</time>
      </trkpt>
      <trkpt lat="44.76051" lon="5.92269">
        <ele>1475.280273</ele>
        <time>2012-08-04T13:08:36Z</time>
      </trkpt>
      <trkpt lat="44.76039" lon="5.92268">
        <ele>1470.95459</ele>
        <time>2012-08-04T13:09:00Z</time>
      </trkpt>
      <trkpt lat="44.76048" lon="5.92265">
        <ele>1468.070557</ele>
        <time>2012-08-04T13:09:15Z</time>
      </trkpt>
      <trkpt lat="44.76061" lon="5.92283">
        <ele>1466.147705</ele>
        <time>2012-08-04T13:09:44Z</time>
      </trkpt>
      <trkpt lat="44.76043" lon="5.92272">
        <ele>1486.335693</ele>
        <time>2012-08-04T13:10:54Z</time>
      </trkpt>
      <trkpt lat="44.76054" lon="5.92271">
        <ele>1505.081299</ele>
        <time>2012-08-04T13:11:02Z</time>
      </trkpt>
      <trkpt lat="44.76021" lon="5.92263">
        <ele>1472.396484</ele>
        <time>2012-08-04T13:11:41Z</time>
      </trkpt>
      <trkpt lat="44.76058" lon="5.92274">
        <ele>1476.722412</ele>
        <time>2012-08-04T13:13:04Z</time>
      </trkpt>
      <trkpt lat="44.76063" lon="5.92304">
        <ele>1482.009521</ele>
        <time>2012-08-04T13:13:37Z</time>
      </trkpt>
      <trkpt lat="44.76081" lon="5.92325">
        <ele>1501.716797</ele>
        <time>2012-08-04T13:14:00Z</time>
      </trkpt>
      <trkpt lat="44.76049" lon="5.92348">
        <ele>1473.838379</ele>
        <time>2012-08-04T13:14:45Z</time>
      </trkpt>
      <trkpt lat="44.76108" lon="5.92382">
        <ele>1478.64502</ele>
        <time>2012-08-04T13:15:50Z</time>
      </trkpt>
      <trkpt lat="44.76132" lon="5.92412">
        <ele>1476.241699</ele>
        <time>2012-08-04T13:16:35Z</time>
      </trkpt>
      <trkpt lat="44.7615" lon="5.92415">
        <ele>1478.64502</ele>
        <time>2012-08-04T13:16:53Z</time>
      </trkpt>
      <trkpt lat="44.76155" lon="5.92403">
        <ele>1478.64502</ele>
        <time>2012-08-04T13:17:07Z</time>
      </trkpt>
      <trkpt lat="44.76142" lon="5.92409">
        <ele>1483.932129</ele>
        <time>2012-08-04T13:17:22Z</time>
      </trkpt>
      <trkpt lat="44.76162" lon="5.92437">
        <ele>1482.009521</ele>
        <time>2012-08-04T13:18:34Z</time>
      </trkpt>
      <trkpt lat="44.76147" lon="5.92448">
        <ele>1479.606201</ele>
        <time>2012-08-04T13:18:46Z</time>
      </trkpt>
      <trkpt lat="44.76157" lon="5.92439">
        <ele>1485.374268</ele>
        <time>2012-08-04T13:19:35Z</time>
      </trkpt>
      <trkpt lat="44.76144" lon="5.92462">
        <ele>1482.490234</ele>
        <time>2012-08-04T13:20:22Z</time>
      </trkpt>
      <trkpt lat="44.7614" lon="5.92451">
        <ele>1483.451416</ele>
        <time>2012-08-04T13:20:48Z</time>
      </trkpt>
      <trkpt lat="44.76156" lon="5.92438">
        <ele>1483.932129</ele>
        <time>2012-08-04T13:21:09Z</time>
      </trkpt>
      <trkpt lat="44.7615" lon="5.92415">
        <ele>1482.970703</ele>
        <time>2012-08-04T13:21:58Z</time>
      </trkpt>
      <trkpt lat="44.76134" lon="5.92404">
        <ele>1478.64502</ele>
        <time>2012-08-04T13:23:06Z</time>
      </trkpt>
      <trkpt lat="44.76146" lon="5.92398">
        <ele>1478.64502</ele>
        <time>2012-08-04T13:23:16Z</time>
      </trkpt>
      <trkpt lat="44.76124" lon="5.92343">
        <ele>1467.5896</ele>
        <time>2012-08-04T13:23:59Z</time>
      </trkpt>
      <trkpt lat="44.76076" lon="5.92327">
        <ele>1438.269775</ele>
        <time>2012-08-04T13:24:35Z</time>
      </trkpt>
      <trkpt lat="44.76083" lon="5.92325">
        <ele>1441.153564</ele>
        <time>2012-08-04T13:24:41Z</time>
      </trkpt>
      <trkpt lat="44.76056" lon="5.92316">
        <ele>1433.943604</ele>
        <time>2012-08-04T13:25:00Z</time>
      </trkpt>
      <trkpt lat="44.76057" lon="5.92308">
        <ele>1439.71167</ele>
        <time>2012-08-04T13:25:13Z</time>
      </trkpt>
      <trkpt lat="44.76066" lon="5.92308">
        <ele>1444.998779</ele>
        <time>2012-08-04T13:25:21Z</time>
      </trkpt>
      <trkpt lat="44.76076" lon="5.92291">
        <ele>1451.247314</ele>
        <time>2012-08-04T13:25:55Z</time>
      </trkpt>
      <trkpt lat="44.76092" lon="5.92286">
        <ele>1459.418701</ele>
        <time>2012-08-04T13:26:10Z</time>
      </trkpt>
      <trkpt lat="44.76096" lon="5.92304">
        <ele>1462.30249</ele>
        <time>2012-08-04T13:26:40Z</time>
      </trkpt>
      <trkpt lat="44.76068" lon="5.92322">
        <ele>1441.153564</ele>
        <time>2012-08-04T13:27:20Z</time>
      </trkpt>
      <trkpt lat="44.76085" lon="5.92318">
        <ele>1450.286133</ele>
        <time>2012-08-04T13:27:37Z</time>
      </trkpt>
      <trkpt lat="44.76085" lon="5.92333">
        <ele>1438.750488</ele>
        <time>2012-08-04T13:28:05Z</time>
      </trkpt>
      <trkpt lat="44.76096" lon="5.9233">
        <ele>1444.037598</ele>
        <time>2012-08-04T13:28:22Z</time>
      </trkpt>
      <trkpt lat="44.7609" lon="5.92329">
        <ele>1445.479492</ele>
        <time>2012-08-04T13:28:29Z</time>
      </trkpt>
      <trkpt lat="44.76117" lon="5.92313">
        <ele>1449.80542</ele>
        <time>2012-08-04T13:28:52Z</time>
      </trkpt>
      <trkpt lat="44.76099" lon="5.92303">
        <ele>1442.595703</ele>
        <time>2012-08-04T13:29:03Z</time>
      </trkpt>
      <trkpt lat="44.76106" lon="5.92292">
        <ele>1425.291748</ele>
        <time>2012-08-04T13:29:35Z</time>
      </trkpt>
      <trkpt lat="44.7614" lon="5.92288">
        <ele>1446.440918</ele>
        <time>2012-08-04T13:29:49Z</time>
      </trkpt>
      <trkpt lat="44.76131" lon="5.92296">
        <ele>1437.30835</ele>
        <time>2012-08-04T13:30:01Z</time>
      </trkpt>
      <trkpt lat="44.76138" lon="5.92295">
        <ele>1438.269775</ele>
        <time>2012-08-04T13:30:09Z</time>
      </trkpt>
      <trkpt lat="44.76121" lon="5.92303">
        <ele>1422.888672</ele>
        <time>2012-08-04T13:30:25Z</time>
      </trkpt>
      <trkpt lat="44.76136" lon="5.92306">
        <ele>1428.175781</ele>
        <time>2012-08-04T13:30:31Z</time>
      </trkpt>
      <trkpt lat="44.76122" lon="5.92299">
        <ele>1403.662109</ele>
        <time>2012-08-04T13:31:19Z</time>
      </trkpt>
      <trkpt lat="44.76138" lon="5.92286">
        <ele>1406.06543</ele>
        <time>2012-08-04T13:32:20Z</time>
      </trkpt>
      <trkpt lat="44.76132" lon="5.92281">
        <ele>1401.739502</ele>
        <time>2012-08-04T13:32:35Z</time>
      </trkpt>
      <trkpt lat="44.76148" lon="5.92286">
        <ele>1393.087646</ele>
        <time>2012-08-04T13:33:13Z</time>
      </trkpt>
      <trkpt lat="44.76163" lon="5.92278">
        <ele>1406.546143</ele>
        <time>2012-08-04T13:33:33Z</time>
      </trkpt>
      <trkpt lat="44.76157" lon="5.92292">
        <ele>1377.706543</ele>
        <time>2012-08-04T13:34:52Z</time>
      </trkpt>
      <trkpt lat="44.76174" lon="5.92281">
        <ele>1385.877686</ele>
        <time>2012-08-04T13:35:45Z</time>
      </trkpt>
      <trkpt lat="44.76157" lon="5.92277">
        <ele>1374.342041</ele>
        <time>2012-08-04T13:36:01Z</time>
      </trkpt>
      <trkpt lat="44.76158" lon="5.92287">
        <ele>1364.248047</ele>
        <time>2012-08-04T13:36:30Z</time>
      </trkpt>
      <trkpt lat="44.76191" lon="5.92303">
        <ele>1363.767334</ele>
        <time>2012-08-04T13:37:14Z</time>
      </trkpt>
      <trkpt lat="44.76184" lon="5.92311">
        <ele>1354.154297</ele>
        <time>2012-08-04T13:37:24Z</time>
      </trkpt>
      <trkpt lat="44.76219" lon="5.92313">
        <ele>1357.999756</ele>
        <time>2012-08-04T13:37:58Z</time>
      </trkpt>
      <trkpt lat="44.76215" lon="5.92335">
        <ele>1340.215332</ele>
        <time>2012-08-04T13:38:19Z</time>
      </trkpt>
      <trkpt lat="44.76232" lon="5.92368">
        <ele>1333.966553</ele>
        <time>2012-08-04T13:39:10Z</time>
      </trkpt>
      <trkpt lat="44.76229" lon="5.92443">
        <ele>1311.375732</ele>
        <time>2012-08-04T13:40:19Z</time>
      </trkpt>
      <trkpt lat="44.76237" lon="5.92446">
        <ele>1317.143555</ele>
        <time>2012-08-04T13:40:23Z</time>
      </trkpt>
      <trkpt lat="44.76223" lon="5.92521">
        <ele>1291.187744</ele>
        <time>2012-08-04T13:41:33Z</time>
      </trkpt>
      <trkpt lat="44.76238" lon="5.9253">
        <ele>1297.917236</ele>
        <time>2012-08-04T13:41:43Z</time>
      </trkpt>
      <trkpt lat="44.76234" lon="5.92547">
        <ele>1301.281738</ele>
        <time>2012-08-04T13:42:04Z</time>
      </trkpt>
      <trkpt lat="44.76269" lon="5.92536">
        <ele>1334.447266</ele>
        <time>2012-08-04T13:42:21Z</time>
      </trkpt>
      <trkpt lat="44.76243" lon="5.92552">
        <ele>1309.453125</ele>
        <time>2012-08-04T13:42:46Z</time>
      </trkpt>
      <trkpt lat="44.76246" lon="5.92562">
        <ele>1308.972412</ele>
        <time>2012-08-04T13:43:08Z</time>
      </trkpt>
      <trkpt lat="44.76286" lon="5.92546">
        <ele>1342.618652</ele>
        <time>2012-08-04T13:43:40Z</time>
      </trkpt>
      <trkpt lat="44.76247" lon="5.92541">
        <ele>1316.662842</ele>
        <time>2012-08-04T13:44:02Z</time>
      </trkpt>
      <trkpt lat="44.76261" lon="5.92527">
        <ele>1329.159912</ele>
        <time>2012-08-04T13:44:22Z</time>
      </trkpt>
      <trkpt lat="44.76242" lon="5.9252">
        <ele>1309.933594</ele>
        <time>2012-08-04T13:44:38Z</time>
      </trkpt>
      <trkpt lat="44.76246" lon="5.92501">
        <ele>1296.955811</ele>
        <time>2012-08-04T13:45:05Z</time>
      </trkpt>
      <trkpt lat="44.76287" lon="5.92498">
        <ele>1275.325928</ele>
        <time>2012-08-04T13:46:21Z</time>
      </trkpt>
      <trkpt lat="44.76283" lon="5.92494">
        <ele>1271.480713</ele>
        <time>2012-08-04T13:46:26Z</time>
      </trkpt>
      <trkpt lat="44.76317" lon="5.92495">
        <ele>1261.86792</ele>
        <time>2012-08-04T13:47:32Z</time>
      </trkpt>
      <trkpt lat="44.76302" lon="5.92509">
        <ele>1244.083496</ele>
        <time>2012-08-04T13:47:59Z</time>
      </trkpt>
      <trkpt lat="44.76322" lon="5.92533">
        <ele>1241.679932</ele>
        <time>2012-08-04T13:50:04Z</time>
      </trkpt>
      <trkpt lat="44.76331" lon="5.92532">
        <ele>1246.967285</ele>
        <time>2012-08-04T13:50:18Z</time>
      </trkpt>
      <trkpt lat="44.76324" lon="5.92529">
        <ele>1235.912109</ele>
        <time>2012-08-04T13:50:53Z</time>
      </trkpt>
      <trkpt lat="44.7634" lon="5.92534">
        <ele>1232.547607</ele>
        <time>2012-08-04T13:51:31Z</time>
      </trkpt>
      <trkpt lat="44.76342" lon="5.92551">
        <ele>1221.011719</ele>
        <time>2012-08-04T13:52:07Z</time>
      </trkpt>
      <trkpt lat="44.76357" lon="5.92562">
        <ele>1213.801758</ele>
        <time>2012-08-04T13:52:52Z</time>
      </trkpt>
      <trkpt lat="44.76343" lon="5.92589">
        <ele>1172.945801</ele>
        <time>2012-08-04T13:54:43Z</time>
      </trkpt>
      <trkpt lat="44.76348" lon="5.92575">
        <ele>1196.498291</ele>
        <time>2012-08-04T13:55:18Z</time>
      </trkpt>
      <trkpt lat="44.76357" lon="5.92575">
        <ele>1222.453613</ele>
        <time>2012-08-04T13:56:35Z</time>
      </trkpt>
      <trkpt lat="44.76352" lon="5.9258">
        <ele>1225.818115</ele>
        <time>2012-08-04T13:56:43Z</time>
      </trkpt>
      <trkpt lat="44.76382" lon="5.92585">
        <ele>1260.906494</ele>
        <time>2012-08-04T13:57:41Z</time>
      </trkpt>
      <trkpt lat="44.76354" lon="5.92583">
        <ele>1213.321289</ele>
        <time>2012-08-04T13:58:38Z</time>
      </trkpt>
      <trkpt lat="44.76384" lon="5.92592">
        <ele>1218.608398</ele>
        <time>2012-08-04T13:59:14Z</time>
      </trkpt>
      <trkpt lat="44.76393" lon="5.92611">
        <ele>1218.127686</ele>
        <time>2012-08-04T13:59:36Z</time>
      </trkpt>
      <trkpt lat="44.7642" lon="5.92631">
        <ele>1220.531006</ele>
        <time>2012-08-04T14:00:03Z</time>
      </trkpt>
      <trkpt lat="44.76425" lon="5.92646">
        <ele>1221.9729</ele>
        <time>2012-08-04T14:00:14Z</time>
      </trkpt>
      <trkpt lat="44.7649" lon="5.92656">
        <ele>1240.238037</ele>
        <time>2012-08-04T14:01:04Z</time>
      </trkpt>
      <trkpt lat="44.76517" lon="5.92685">
        <ele>1226.298828</ele>
        <time>2012-08-04T14:02:03Z</time>
      </trkpt>
      <trkpt lat="44.76509" lon="5.92714">
        <ele>1241.199219</ele>
        <time>2012-08-04T14:02:31Z</time>
      </trkpt>
      <trkpt lat="44.76514" lon="5.9274">
        <ele>1239.757324</ele>
        <time>2012-08-04T14:02:54Z</time>
      </trkpt>
      <trkpt lat="44.76528" lon="5.92749">
        <ele>1240.238037</ele>
        <time>2012-08-04T14:03:06Z</time>
      </trkpt>
      <trkpt lat="44.76592" lon="5.92658">
        <ele>1207.553223</ele>
        <time>2012-08-04T14:05:00Z</time>
      </trkpt>
      <trkpt lat="44.76615" lon="5.92652">
        <ele>1196.017578</ele>
        <time>2012-08-04T14:05:21Z</time>
      </trkpt>
      <trkpt lat="44.76631" lon="5.92629">
        <ele>1191.210693</ele>
        <time>2012-08-04T14:05:42Z</time>
      </trkpt>
      <trkpt lat="44.7663" lon="5.92611">
        <ele>1180.636475</ele>
        <time>2012-08-04T14:05:57Z</time>
      </trkpt>
      <trkpt lat="44.76713" lon="5.92476">
        <ele>1159.967773</ele>
        <time>2012-08-04T14:07:36Z</time>
      </trkpt>
      <trkpt lat="44.76713" lon="5.92464">
        <ele>1152.277344</ele>
        <time>2012-08-04T14:07:44Z</time>
      </trkpt>
      <trkpt lat="44.7674" lon="5.92422">
        <ele>1153.23877</ele>
        <time>2012-08-04T14:08:12Z</time>
      </trkpt>
      <trkpt lat="44.76746" lon="5.92389">
        <ele>1135.454346</ele>
        <time>2012-08-04T14:08:32Z</time>
      </trkpt>
      <trkpt lat="44.76823" lon="5.92276">
        <ele>1111.9021</ele>
        <time>2012-08-04T14:10:23Z</time>
      </trkpt>
      <trkpt lat="44.76798" lon="5.92189">
        <ele>1075.852539</ele>
        <time>2012-08-04T14:11:31Z</time>
      </trkpt>
      <trkpt lat="44.76771" lon="5.92182">
        <ele>1068.642822</ele>
        <time>2012-08-04T14:11:59Z</time>
      </trkpt>
      <trkpt lat="44.76779" lon="5.92189">
        <ele>1065.278076</ele>
        <time>2012-08-04T14:12:34Z</time>
      </trkpt>
      <trkpt lat="44.76812" lon="5.92163">
        <ele>1066.239258</ele>
        <time>2012-08-04T14:13:04Z</time>
      </trkpt>
      <trkpt lat="44.76834" lon="5.92126">
        <ele>1052.300293</ele>
        <time>2012-08-04T14:13:37Z</time>
      </trkpt>
      <trkpt lat="44.76842" lon="5.92137">
        <ele>1056.145508</ele>
        <time>2012-08-04T14:14:29Z</time>
      </trkpt>
      <trkpt lat="44.76867" lon="5.92124">
        <ele>1051.81958</ele>
        <time>2012-08-04T14:14:50Z</time>
      </trkpt>
      <trkpt lat="44.76902" lon="5.92122">
        <ele>1048.935547</ele>
        <time>2012-08-04T14:15:19Z</time>
      </trkpt>
      <trkpt lat="44.77017" lon="5.92038">
        <ele>1045.571045</ele>
        <time>2012-08-04T14:16:59Z</time>
      </trkpt>
      <trkpt lat="44.77042" lon="5.92033">
        <ele>1040.283936</ele>
        <time>2012-08-04T14:17:18Z</time>
      </trkpt>
      <trkpt lat="44.77089" lon="5.91995">
        <ele>1036.919189</ele>
        <time>2012-08-04T14:18:01Z</time>
      </trkpt>
      <trkpt lat="44.77122" lon="5.91994">
        <ele>1034.515869</ele>
        <time>2012-08-04T14:18:27Z</time>
      </trkpt>
      <trkpt lat="44.77253" lon="5.92062">
        <ele>1015.770264</ele>
        <time>2012-08-04T14:20:21Z</time>
      </trkpt>
      <trkpt lat="44.77276" lon="5.92126">
        <ele>1018.17334</ele>
        <time>2012-08-04T14:21:04Z</time>
      </trkpt>
      <trkpt lat="44.77373" lon="5.9226">
        <ele>1014.808838</ele>
        <time>2012-08-04T14:22:55Z</time>
      </trkpt>
      <trkpt lat="44.77382" lon="5.92288">
        <ele>989.333984</ele>
        <time>2012-08-04T14:23:14Z</time>
      </trkpt>
      <trkpt lat="44.77402" lon="5.9231">
        <ele>994.621094</ele>
        <time>2012-08-04T14:23:31Z</time>
      </trkpt>
      <trkpt lat="44.77451" lon="5.9231">
        <ele>987.411133</ele>
        <time>2012-08-04T14:24:09Z</time>
      </trkpt>
      <trkpt lat="44.77515" lon="5.92284">
        <ele>971.549316</ele>
        <time>2012-08-04T14:25:04Z</time>
      </trkpt>
      <trkpt lat="44.77536" lon="5.92294">
        <ele>970.107422</ele>
        <time>2012-08-04T14:25:21Z</time>
      </trkpt>
      <trkpt lat="44.77599" lon="5.92401">
        <ele>960.975098</ele>
        <time>2012-08-04T14:26:40Z</time>
      </trkpt>
      <trkpt lat="44.77643" lon="5.92552">
        <ele>986.93042</ele>
        <time>2012-08-04T14:28:12Z</time>
      </trkpt>
      <trkpt lat="44.77644" lon="5.92604">
        <ele>987.411133</ele>
        <time>2012-08-04T14:28:51Z</time>
      </trkpt>
      <trkpt lat="44.77669" lon="5.92605">
        <ele>986.449951</ele>
        <time>2012-08-04T14:29:35Z</time>
      </trkpt>
      <trkpt lat="44.77696" lon="5.92656">
        <ele>966.262207</ele>
        <time>2012-08-04T14:30:11Z</time>
      </trkpt>
      <trkpt lat="44.77768" lon="5.92664">
        <ele>960.013672</ele>
        <time>2012-08-04T14:31:51Z</time>
      </trkpt>
      <trkpt lat="44.77791" lon="5.92638">
        <ele>958.571777</ele>
        <time>2012-08-04T14:32:35Z</time>
      </trkpt>
    </trkseg>
  </trk>
</gpx>